sensor_id;sensor_type;location;lat;lon;timestamp;P1;durP1;ratioP1;P2;durP2;ratioP2
21827;SDS011;11076;47.942;11.804;2023-12-20T00:03:28;1.97;;;1.77;;
21827;SDS011;11076;47.942;11.804;2023-12-20T00:08:34;3.37;;;2.13;;
21827;SDS011;11076;47.942;11.804;2023-12-20T00:13:37;2.60;;;1.93;;
21827;SDS011;11076;47.942;11.804;2023-12-20T00:18:39;3.57;;;2.00;;
21827;SDS011;11076;47.942;11.804;2023-12-20T00:23:42;2.97;;;1.70;;
21827;SDS011;11076;47.942;11.804;2023-12-20T00:28:44;3.27;;;1.97;;
21827;SDS011;11076;47.942;11.804;2023-12-20T00:33:46;5.83;;;1.70;;
21827;SDS011;11076;47.942;11.804;2023-12-20T00:38:49;1.83;;;1.60;;
21827;SDS011;11076;47.942;11.804;2023-12-20T00:43:53;2.00;;;1.50;;
21827;SDS011;11076;47.942;11.804;2023-12-20T00:48:55;2.07;;;1.87;;
21827;SDS011;11076;47.942;11.804;2023-12-20T00:53:58;2.50;;;2.00;;
21827;SDS011;11076;47.942;11.804;2023-12-20T00:59:00;2.63;;;2.23;;
21827;SDS011;11076;47.942;11.804;2023-12-20T01:04:03;2.87;;;2.10;;
21827;SDS011;11076;47.942;11.804;2023-12-20T01:09:05;2.37;;;1.90;;
21827;SDS011;11076;47.942;11.804;2023-12-20T01:14:08;2.40;;;1.83;;
21827;SDS011;11076;47.942;11.804;2023-12-20T01:19:10;3.23;;;1.93;;
21827;SDS011;11076;47.942;11.804;2023-12-20T01:24:13;2.53;;;2.00;;
21827;SDS011;11076;47.942;11.804;2023-12-20T01:29:15;2.40;;;2.00;;
21827;SDS011;11076;47.942;11.804;2023-12-20T01:34:18;5.53;;;2.23;;
21827;SDS011;11076;47.942;11.804;2023-12-20T01:39:20;2.93;;;2.37;;
21827;SDS011;11076;47.942;11.804;2023-12-20T01:44:25;8.17;;;2.27;;
21827;SDS011;11076;47.942;11.804;2023-12-20T01:49:28;2.70;;;2.33;;
21827;SDS011;11076;47.942;11.804;2023-12-20T01:54:31;3.07;;;2.27;;
21827;SDS011;11076;47.942;11.804;2023-12-20T01:59:34;2.40;;;2.03;;
21827;SDS011;11076;47.942;11.804;2023-12-20T02:04:37;5.03;;;2.70;;
21827;SDS011;11076;47.942;11.804;2023-12-20T02:09:39;3.40;;;2.50;;
21827;SDS011;11076;47.942;11.804;2023-12-20T02:14:42;5.57;;;2.33;;
21827;SDS011;11076;47.942;11.804;2023-12-20T02:19:44;2.83;;;2.27;;
21827;SDS011;11076;47.942;11.804;2023-12-20T02:24:47;3.07;;;2.77;;
21827;SDS011;11076;47.942;11.804;2023-12-20T02:29:49;4.77;;;2.57;;
21827;SDS011;11076;47.942;11.804;2023-12-20T02:34:53;2.73;;;2.33;;
21827;SDS011;11076;47.942;11.804;2023-12-20T02:39:55;2.43;;;1.90;;
21827;SDS011;11076;47.942;11.804;2023-12-20T02:44:58;3.57;;;2.50;;
21827;SDS011;11076;47.942;11.804;2023-12-20T02:50:00;5.03;;;2.43;;
21827;SDS011;11076;47.942;11.804;2023-12-20T02:55:03;2.90;;;2.50;;
21827;SDS011;11076;47.942;11.804;2023-12-20T03:00:05;2.07;;;1.87;;
21827;SDS011;11076;47.942;11.804;2023-12-20T03:05:09;2.43;;;1.83;;
21827;SDS011;11076;47.942;11.804;2023-12-20T03:10:12;2.17;;;1.80;;
21827;SDS011;11076;47.942;11.804;2023-12-20T03:15:16;3.13;;;2.37;;
21827;SDS011;11076;47.942;11.804;2023-12-20T03:20:18;3.30;;;1.73;;
21827;SDS011;11076;47.942;11.804;2023-12-20T03:25:20;2.17;;;2.00;;
21827;SDS011;11076;47.942;11.804;2023-12-20T03:30:23;2.00;;;1.63;;
21827;SDS011;11076;47.942;11.804;2023-12-20T03:35:27;1.80;;;1.70;;
21827;SDS011;11076;47.942;11.804;2023-12-20T03:40:29;1.50;;;1.40;;
21827;SDS011;11076;47.942;11.804;2023-12-20T03:45:32;1.93;;;1.70;;
21827;SDS011;11076;47.942;11.804;2023-12-20T03:50:34;1.93;;;1.40;;
21827;SDS011;11076;47.942;11.804;2023-12-20T03:55:37;1.67;;;1.50;;
21827;SDS011;11076;47.942;11.804;2023-12-20T04:00:39;1.40;;;1.30;;
21827;SDS011;11076;47.942;11.804;2023-12-20T04:05:42;1.90;;;1.30;;
21827;SDS011;11076;47.942;11.804;2023-12-20T04:10:44;1.33;;;1.13;;
21827;SDS011;11076;47.942;11.804;2023-12-20T04:15:47;1.50;;;1.40;;
21827;SDS011;11076;47.942;11.804;2023-12-20T04:20:50;1.40;;;1.20;;
21827;SDS011;11076;47.942;11.804;2023-12-20T04:25:54;1.27;;;1.07;;
21827;SDS011;11076;47.942;11.804;2023-12-20T04:30:56;1.47;;;1.20;;
21827;SDS011;11076;47.942;11.804;2023-12-20T04:35:59;1.30;;;1.20;;
21827;SDS011;11076;47.942;11.804;2023-12-20T04:41:02;1.30;;;1.20;;
21827;SDS011;11076;47.942;11.804;2023-12-20T04:46:04;1.30;;;1.20;;
21827;SDS011;11076;47.942;11.804;2023-12-20T04:51:07;1.33;;;1.10;;
21827;SDS011;11076;47.942;11.804;2023-12-20T04:56:10;1.27;;;1.17;;
21827;SDS011;11076;47.942;11.804;2023-12-20T05:01:12;1.97;;;1.57;;
21827;SDS011;11076;47.942;11.804;2023-12-20T05:06:15;1.50;;;1.37;;
21827;SDS011;11076;47.942;11.804;2023-12-20T05:11:17;1.63;;;1.30;;
21827;SDS011;11076;47.942;11.804;2023-12-20T05:16:19;1.23;;;1.13;;
21827;SDS011;11076;47.942;11.804;2023-12-20T05:21:22;0.83;;;0.83;;
21827;SDS011;11076;47.942;11.804;2023-12-20T05:26:25;2.00;;;1.03;;
21827;SDS011;11076;47.942;11.804;2023-12-20T05:31:27;1.00;;;1.00;;
21827;SDS011;11076;47.942;11.804;2023-12-20T05:36:30;1.77;;;1.17;;
21827;SDS011;11076;47.942;11.804;2023-12-20T05:41:33;2.23;;;1.33;;
21827;SDS011;11076;47.942;11.804;2023-12-20T05:46:35;1.10;;;1.00;;
21827;SDS011;11076;47.942;11.804;2023-12-20T05:51:38;0.77;;;0.77;;
21827;SDS011;11076;47.942;11.804;2023-12-20T05:56:41;0.90;;;0.90;;
21827;SDS011;11076;47.942;11.804;2023-12-20T06:01:43;1.57;;;1.47;;
21827;SDS011;11076;47.942;11.804;2023-12-20T06:06:45;1.07;;;0.80;;
21827;SDS011;11076;47.942;11.804;2023-12-20T06:11:48;1.60;;;1.20;;
21827;SDS011;11076;47.942;11.804;2023-12-20T06:16:51;1.50;;;0.77;;
21827;SDS011;11076;47.942;11.804;2023-12-20T06:21:53;1.40;;;1.30;;
21827;SDS011;11076;47.942;11.804;2023-12-20T06:26:55;0.90;;;0.90;;
21827;SDS011;11076;47.942;11.804;2023-12-20T06:31:58;0.87;;;0.87;;
21827;SDS011;11076;47.942;11.804;2023-12-20T06:37:00;1.00;;;1.00;;
21827;SDS011;11076;47.942;11.804;2023-12-20T06:42:03;0.73;;;0.73;;
21827;SDS011;11076;47.942;11.804;2023-12-20T06:47:05;1.10;;;0.97;;
21827;SDS011;11076;47.942;11.804;2023-12-20T06:52:08;1.33;;;0.80;;
21827;SDS011;11076;47.942;11.804;2023-12-20T06:57:10;1.20;;;0.90;;
21827;SDS011;11076;47.942;11.804;2023-12-20T07:02:12;1.53;;;0.70;;
21827;SDS011;11076;47.942;11.804;2023-12-20T07:07:15;1.00;;;0.70;;
21827;SDS011;11076;47.942;11.804;2023-12-20T07:12:18;0.60;;;0.60;;
21827;SDS011;11076;47.942;11.804;2023-12-20T07:17:21;0.80;;;0.80;;
21827;SDS011;11076;47.942;11.804;2023-12-20T07:22:24;1.47;;;0.90;;
21827;SDS011;11076;47.942;11.804;2023-12-20T07:27:26;0.80;;;0.80;;
21827;SDS011;11076;47.942;11.804;2023-12-20T07:32:29;0.60;;;0.60;;
21827;SDS011;11076;47.942;11.804;2023-12-20T07:37:31;0.80;;;0.80;;
21827;SDS011;11076;47.942;11.804;2023-12-20T07:42:34;0.97;;;0.70;;
21827;SDS011;11076;47.942;11.804;2023-12-20T07:47:36;1.53;;;1.23;;
21827;SDS011;11076;47.942;11.804;2023-12-20T07:52:38;0.83;;;0.80;;
21827;SDS011;11076;47.942;11.804;2023-12-20T07:57:41;2.57;;;1.10;;
21827;SDS011;11076;47.942;11.804;2023-12-20T08:02:43;1.87;;;1.03;;
21827;SDS011;11076;47.942;11.804;2023-12-20T08:07:46;1.10;;;1.00;;
21827;SDS011;11076;47.942;11.804;2023-12-20T08:12:48;1.00;;;1.00;;
21827;SDS011;11076;47.942;11.804;2023-12-20T08:17:51;0.47;;;0.47;;
21827;SDS011;11076;47.942;11.804;2023-12-20T08:22:53;7.83;;;2.33;;
21827;SDS011;11076;47.942;11.804;2023-12-20T08:27:55;2.43;;;1.40;;
21827;SDS011;11076;47.942;11.804;2023-12-20T08:33:01;4.07;;;2.07;;
21827;SDS011;11076;47.942;11.804;2023-12-20T08:38:04;1.47;;;1.30;;
21827;SDS011;11076;47.942;11.804;2023-12-20T08:43:07;2.23;;;1.57;;
21827;SDS011;11076;47.942;11.804;2023-12-20T08:48:09;0.90;;;0.90;;
21827;SDS011;11076;47.942;11.804;2023-12-20T08:53:11;2.03;;;1.07;;
21827;SDS011;11076;47.942;11.804;2023-12-20T08:58:14;1.57;;;1.47;;
21827;SDS011;11076;47.942;11.804;2023-12-20T09:03:16;1.30;;;1.20;;
21827;SDS011;11076;47.942;11.804;2023-12-20T09:08:19;2.27;;;1.20;;
21827;SDS011;11076;47.942;11.804;2023-12-20T09:13:21;2.10;;;1.53;;
21827;SDS011;11076;47.942;11.804;2023-12-20T09:18:28;1.43;;;1.33;;
21827;SDS011;11076;47.942;11.804;2023-12-20T09:23:31;1.40;;;1.30;;
21827;SDS011;11076;47.942;11.804;2023-12-20T09:28:33;1.37;;;1.00;;
21827;SDS011;11076;47.942;11.804;2023-12-20T09:33:38;0.80;;;0.80;;
21827;SDS011;11076;47.942;11.804;2023-12-20T09:38:41;1.23;;;1.10;;
21827;SDS011;11076;47.942;11.804;2023-12-20T09:43:44;0.97;;;0.90;;
21827;SDS011;11076;47.942;11.804;2023-12-20T09:48:47;1.00;;;0.90;;
21827;SDS011;11076;47.942;11.804;2023-12-20T09:53:49;5.43;;;1.10;;
21827;SDS011;11076;47.942;11.804;2023-12-20T09:58:56;1.33;;;1.10;;
21827;SDS011;11076;47.942;11.804;2023-12-20T10:03:59;1.40;;;1.30;;
21827;SDS011;11076;47.942;11.804;2023-12-20T10:09:03;1.70;;;1.00;;
21827;SDS011;11076;47.942;11.804;2023-12-20T10:14:06;0.80;;;0.80;;
21827;SDS011;11076;47.942;11.804;2023-12-20T10:19:09;1.73;;;0.90;;
21827;SDS011;11076;47.942;11.804;2023-12-20T10:24:16;0.67;;;0.67;;
21827;SDS011;11076;47.942;11.804;2023-12-20T10:29:19;0.90;;;0.90;;
21827;SDS011;11076;47.942;11.804;2023-12-20T10:34:21;1.37;;;0.70;;
21827;SDS011;11076;47.942;11.804;2023-12-20T10:39:24;1.10;;;1.00;;
21827;SDS011;11076;47.942;11.804;2023-12-20T10:44:26;0.60;;;0.60;;
21827;SDS011;11076;47.942;11.804;2023-12-20T10:49:29;0.60;;;0.60;;
21827;SDS011;11076;47.942;11.804;2023-12-20T10:54:33;0.60;;;0.60;;
21827;SDS011;11076;47.942;11.804;2023-12-20T10:59:36;2.57;;;1.00;;
21827;SDS011;11076;47.942;11.804;2023-12-20T11:10:10;1.17;;;0.70;;
21827;SDS011;11076;47.942;11.804;2023-12-20T11:15:19;0.67;;;0.67;;
21827;SDS011;11076;47.942;11.804;2023-12-20T11:20:23;0.70;;;0.70;;
21827;SDS011;11076;47.942;11.804;2023-12-20T11:25:26;0.50;;;0.50;;
21827;SDS011;11076;47.942;11.804;2023-12-20T11:30:29;2.80;;;0.97;;
21827;SDS011;11076;47.942;11.804;2023-12-20T11:35:43;0.70;;;0.70;;
21827;SDS011;11076;47.942;11.804;2023-12-20T11:40:48;1.90;;;1.60;;
21827;SDS011;11076;47.942;11.804;2023-12-20T11:45:52;0.90;;;0.90;;
21827;SDS011;11076;47.942;11.804;2023-12-20T11:50:54;1.40;;;1.30;;
21827;SDS011;11076;47.942;11.804;2023-12-20T11:55:57;0.60;;;0.60;;
21827;SDS011;11076;47.942;11.804;2023-12-20T12:00:59;1.77;;;1.10;;
21827;SDS011;11076;47.942;11.804;2023-12-20T12:06:04;3.43;;;1.70;;
21827;SDS011;11076;47.942;11.804;2023-12-20T12:11:07;1.30;;;1.20;;
21827;SDS011;11076;47.942;11.804;2023-12-20T12:16:09;1.00;;;0.90;;
21827;SDS011;11076;47.942;11.804;2023-12-20T12:21:19;0.87;;;0.87;;
21827;SDS011;11076;47.942;11.804;2023-12-20T12:26:24;1.10;;;1.10;;
21827;SDS011;11076;47.942;11.804;2023-12-20T12:31:27;1.37;;;0.80;;
21827;SDS011;11076;47.942;11.804;2023-12-20T12:36:29;0.90;;;0.90;;
21827;SDS011;11076;47.942;11.804;2023-12-20T12:41:32;0.97;;;0.97;;
21827;SDS011;11076;47.942;11.804;2023-12-20T12:46:35;2.30;;;1.00;;
21827;SDS011;11076;47.942;11.804;2023-12-20T12:51:37;1.10;;;1.10;;
21827;SDS011;11076;47.942;11.804;2023-12-20T12:56:40;1.70;;;1.30;;
21827;SDS011;11076;47.942;11.804;2023-12-20T13:01:42;1.60;;;1.17;;
21827;SDS011;11076;47.942;11.804;2023-12-20T13:06:45;1.00;;;1.00;;
21827;SDS011;11076;47.942;11.804;2023-12-20T13:11:49;0.90;;;0.90;;
21827;SDS011;11076;47.942;11.804;2023-12-20T13:16:52;1.13;;;1.03;;
21827;SDS011;11076;47.942;11.804;2023-12-20T13:21:54;1.07;;;0.80;;
21827;SDS011;11076;47.942;11.804;2023-12-20T13:26:56;1.03;;;1.03;;
21827;SDS011;11076;47.942;11.804;2023-12-20T13:31:59;11.33;;;5.60;;
21827;SDS011;11076;47.942;11.804;2023-12-20T13:37:01;1.60;;;1.50;;
21827;SDS011;11076;47.942;11.804;2023-12-20T13:42:04;2.63;;;2.13;;
21827;SDS011;11076;47.942;11.804;2023-12-20T13:47:07;1.57;;;1.20;;
21827;SDS011;11076;47.942;11.804;2023-12-20T13:52:09;2.20;;;2.00;;
21827;SDS011;11076;47.942;11.804;2023-12-20T13:57:12;1.30;;;1.23;;
21827;SDS011;11076;47.942;11.804;2023-12-20T14:02:17;1.33;;;1.27;;
21827;SDS011;11076;47.942;11.804;2023-12-20T14:07:19;3.33;;;1.43;;
21827;SDS011;11076;47.942;11.804;2023-12-20T14:12:23;1.27;;;1.13;;
21827;SDS011;11076;47.942;11.804;2023-12-20T14:17:25;1.20;;;1.13;;
21827;SDS011;11076;47.942;11.804;2023-12-20T14:22:28;2.20;;;1.07;;
21827;SDS011;11076;47.942;11.804;2023-12-20T14:27:31;1.63;;;1.53;;
21827;SDS011;11076;47.942;11.804;2023-12-20T14:32:34;1.80;;;1.53;;
21827;SDS011;11076;47.942;11.804;2023-12-20T14:37:40;1.40;;;1.20;;
21827;SDS011;11076;47.942;11.804;2023-12-20T14:42:43;1.40;;;1.30;;
21827;SDS011;11076;47.942;11.804;2023-12-20T14:47:46;2.03;;;1.87;;
21827;SDS011;11076;47.942;11.804;2023-12-20T14:52:50;1.77;;;1.57;;
21827;SDS011;11076;47.942;11.804;2023-12-20T14:57:55;1.83;;;1.50;;
21827;SDS011;11076;47.942;11.804;2023-12-20T15:02:57;2.27;;;1.60;;
21827;SDS011;11076;47.942;11.804;2023-12-20T15:08:00;1.47;;;1.37;;
21827;SDS011;11076;47.942;11.804;2023-12-20T15:13:02;2.80;;;1.80;;
21827;SDS011;11076;47.942;11.804;2023-12-20T15:18:05;3.53;;;1.47;;
21827;SDS011;11076;47.942;11.804;2023-12-20T15:23:07;2.30;;;2.10;;
21827;SDS011;11076;47.942;11.804;2023-12-20T15:28:10;2.10;;;1.90;;
21827;SDS011;11076;47.942;11.804;2023-12-20T15:33:13;2.37;;;2.17;;
21827;SDS011;11076;47.942;11.804;2023-12-20T15:38:15;2.20;;;2.00;;
21827;SDS011;11076;47.942;11.804;2023-12-20T15:43:19;2.50;;;1.73;;
21827;SDS011;11076;47.942;11.804;2023-12-20T15:48:21;2.17;;;1.80;;
21827;SDS011;11076;47.942;11.804;2023-12-20T15:53:30;2.27;;;1.70;;
21827;SDS011;11076;47.942;11.804;2023-12-20T15:58:32;2.30;;;2.10;;
21827;SDS011;11076;47.942;11.804;2023-12-20T16:03:35;4.17;;;2.37;;
21827;SDS011;11076;47.942;11.804;2023-12-20T16:08:40;8.17;;;4.57;;
21827;SDS011;11076;47.942;11.804;2023-12-20T16:13:42;5.27;;;2.63;;
21827;SDS011;11076;47.942;11.804;2023-12-20T16:18:44;3.23;;;2.30;;
21827;SDS011;11076;47.942;11.804;2023-12-20T16:23:47;3.47;;;1.63;;
21827;SDS011;11076;47.942;11.804;2023-12-20T16:28:50;2.57;;;2.10;;
21827;SDS011;11076;47.942;11.804;2023-12-20T16:33:52;2.00;;;1.90;;
21827;SDS011;11076;47.942;11.804;2023-12-20T16:38:55;2.80;;;1.80;;
21827;SDS011;11076;47.942;11.804;2023-12-20T16:43:57;4.70;;;2.20;;
21827;SDS011;11076;47.942;11.804;2023-12-20T16:48:59;5.93;;;3.10;;
21827;SDS011;11076;47.942;11.804;2023-12-20T16:54:02;3.50;;;2.37;;
21827;SDS011;11076;47.942;11.804;2023-12-20T16:59:04;4.10;;;2.03;;
21827;SDS011;11076;47.942;11.804;2023-12-20T17:04:07;4.47;;;1.80;;
21827;SDS011;11076;47.942;11.804;2023-12-20T17:09:10;7.60;;;3.33;;
21827;SDS011;11076;47.942;11.804;2023-12-20T17:14:13;2.03;;;1.83;;
21827;SDS011;11076;47.942;11.804;2023-12-20T17:19:15;2.97;;;2.50;;
21827;SDS011;11076;47.942;11.804;2023-12-20T17:24:17;2.63;;;1.90;;
21827;SDS011;11076;47.942;11.804;2023-12-20T17:29:20;3.00;;;2.10;;
21827;SDS011;11076;47.942;11.804;2023-12-20T17:34:22;2.93;;;2.00;;
21827;SDS011;11076;47.942;11.804;2023-12-20T17:39:25;2.47;;;1.70;;
21827;SDS011;11076;47.942;11.804;2023-12-20T17:44:27;4.53;;;2.83;;
21827;SDS011;11076;47.942;11.804;2023-12-20T17:49:30;3.03;;;1.63;;
21827;SDS011;11076;47.942;11.804;2023-12-20T17:54:34;6.80;;;2.57;;
21827;SDS011;11076;47.942;11.804;2023-12-20T17:59:37;3.47;;;2.47;;
21827;SDS011;11076;47.942;11.804;2023-12-20T18:04:42;4.57;;;2.83;;
21827;SDS011;11076;47.942;11.804;2023-12-20T18:09:45;6.53;;;2.30;;
21827;SDS011;11076;47.942;11.804;2023-12-20T18:14:47;3.53;;;1.80;;
21827;SDS011;11076;47.942;11.804;2023-12-20T18:19:50;1.40;;;1.10;;
21827;SDS011;11076;47.942;11.804;2023-12-20T18:24:53;1.47;;;1.17;;
21827;SDS011;11076;47.942;11.804;2023-12-20T18:29:57;2.20;;;1.47;;
21827;SDS011;11076;47.942;11.804;2023-12-20T18:35:09;1.50;;;1.40;;
21827;SDS011;11076;47.942;11.804;2023-12-20T18:40:12;1.73;;;1.40;;
21827;SDS011;11076;47.942;11.804;2023-12-20T18:45:14;4.10;;;2.00;;
21827;SDS011;11076;47.942;11.804;2023-12-20T18:50:17;5.13;;;2.37;;
21827;SDS011;11076;47.942;11.804;2023-12-20T18:55:19;3.23;;;2.57;;
21827;SDS011;11076;47.942;11.804;2023-12-20T19:00:21;3.07;;;1.80;;
21827;SDS011;11076;47.942;11.804;2023-12-20T19:05:24;1.00;;;1.00;;
21827;SDS011;11076;47.942;11.804;2023-12-20T19:10:29;1.47;;;1.20;;
21827;SDS011;11076;47.942;11.804;2023-12-20T19:15:31;1.60;;;1.50;;
21827;SDS011;11076;47.942;11.804;2023-12-20T19:20:33;3.50;;;1.70;;
21827;SDS011;11076;47.942;11.804;2023-12-20T19:25:36;3.10;;;1.03;;
21827;SDS011;11076;47.942;11.804;2023-12-20T19:30:38;4.20;;;1.30;;
21827;SDS011;11076;47.942;11.804;2023-12-20T19:35:41;3.63;;;1.53;;
21827;SDS011;11076;47.942;11.804;2023-12-20T19:40:43;1.23;;;1.10;;
21827;SDS011;11076;47.942;11.804;2023-12-20T19:45:46;2.30;;;1.83;;
21827;SDS011;11076;47.942;11.804;2023-12-20T19:50:48;1.43;;;1.30;;
21827;SDS011;11076;47.942;11.804;2023-12-20T19:55:54;1.97;;;1.40;;
21827;SDS011;11076;47.942;11.804;2023-12-20T20:00:57;1.57;;;1.43;;
21827;SDS011;11076;47.942;11.804;2023-12-20T20:05:59;4.90;;;1.17;;
21827;SDS011;11076;47.942;11.804;2023-12-20T20:11:02;1.40;;;1.30;;
21827;SDS011;11076;47.942;11.804;2023-12-20T20:16:04;1.30;;;1.20;;
21827;SDS011;11076;47.942;11.804;2023-12-20T20:21:07;4.33;;;1.07;;
21827;SDS011;11076;47.942;11.804;2023-12-20T20:26:10;2.70;;;1.70;;
21827;SDS011;11076;47.942;11.804;2023-12-20T20:31:12;0.60;;;0.60;;
21827;SDS011;11076;47.942;11.804;2023-12-20T20:36:15;1.67;;;1.20;;
21827;SDS011;11076;47.942;11.804;2023-12-20T20:41:18;2.47;;;1.50;;
21827;SDS011;11076;47.942;11.804;2023-12-20T20:46:20;1.83;;;1.30;;
21827;SDS011;11076;47.942;11.804;2023-12-20T20:51:26;1.80;;;1.30;;
21827;SDS011;11076;47.942;11.804;2023-12-20T20:56:29;2.00;;;1.30;;
21827;SDS011;11076;47.942;11.804;2023-12-20T21:01:32;4.10;;;1.70;;
21827;SDS011;11076;47.942;11.804;2023-12-20T21:06:34;3.80;;;1.50;;
21827;SDS011;11076;47.942;11.804;2023-12-20T21:11:37;1.17;;;1.00;;
21827;SDS011;11076;47.942;11.804;2023-12-20T21:16:39;4.63;;;1.20;;
21827;SDS011;11076;47.942;11.804;2023-12-20T21:21:42;2.37;;;1.23;;
21827;SDS011;11076;47.942;11.804;2023-12-20T21:26:44;2.00;;;0.90;;
21827;SDS011;11076;47.942;11.804;2023-12-20T21:31:46;1.80;;;0.90;;
21827;SDS011;11076;47.942;11.804;2023-12-20T21:36:49;4.90;;;1.10;;
21827;SDS011;11076;47.942;11.804;2023-12-20T21:41:51;0.93;;;0.80;;
21827;SDS011;11076;47.942;11.804;2023-12-20T21:46:54;1.30;;;0.80;;
21827;SDS011;11076;47.942;11.804;2023-12-20T21:51:56;0.47;;;0.47;;
21827;SDS011;11076;47.942;11.804;2023-12-20T21:56:59;0.87;;;0.80;;
21827;SDS011;11076;47.942;11.804;2023-12-20T22:02:01;2.00;;;1.03;;
21827;SDS011;11076;47.942;11.804;2023-12-20T22:07:04;0.70;;;0.70;;
21827;SDS011;11076;47.942;11.804;2023-12-20T22:12:06;0.97;;;0.80;;
21827;SDS011;11076;47.942;11.804;2023-12-20T22:17:09;1.03;;;0.83;;
21827;SDS011;11076;47.942;11.804;2023-12-20T22:22:12;2.20;;;0.77;;
21827;SDS011;11076;47.942;11.804;2023-12-20T22:27:15;1.50;;;0.70;;
21827;SDS011;11076;47.942;11.804;2023-12-20T22:32:17;0.77;;;0.63;;
21827;SDS011;11076;47.942;11.804;2023-12-20T22:37:20;3.10;;;0.80;;
21827;SDS011;11076;47.942;11.804;2023-12-20T22:42:22;1.40;;;0.70;;
21827;SDS011;11076;47.942;11.804;2023-12-20T22:47:24;1.67;;;0.70;;
21827;SDS011;11076;47.942;11.804;2023-12-20T22:52:27;0.83;;;0.60;;
21827;SDS011;11076;47.942;11.804;2023-12-20T22:57:30;0.50;;;0.50;;
21827;SDS011;11076;47.942;11.804;2023-12-20T23:02:32;1.80;;;0.70;;
21827;SDS011;11076;47.942;11.804;2023-12-20T23:07:34;0.83;;;0.50;;
21827;SDS011;11076;47.942;11.804;2023-12-20T23:12:38;0.50;;;0.40;;
21827;SDS011;11076;47.942;11.804;2023-12-20T23:17:41;0.60;;;0.60;;
21827;SDS011;11076;47.942;11.804;2023-12-20T23:22:43;0.80;;;0.57;;
21827;SDS011;11076;47.942;11.804;2023-12-20T23:27:46;1.63;;;0.80;;
21827;SDS011;11076;47.942;11.804;2023-12-20T23:32:50;0.60;;;0.60;;
21827;SDS011;11076;47.942;11.804;2023-12-20T23:37:52;0.63;;;0.60;;
21827;SDS011;11076;47.942;11.804;2023-12-20T23:42:55;0.90;;;0.70;;
21827;SDS011;11076;47.942;11.804;2023-12-20T23:47:57;0.60;;;0.60;;
21827;SDS011;11076;47.942;11.804;2023-12-20T23:52:59;1.47;;;0.70;;
21827;SDS011;11076;47.942;11.804;2023-12-20T23:58:02;2.13;;;0.80;;
